sensor_id;sensor_type;location;lat;lon;timestamp;pressure;altitude;pressure_sealevel;temperature;humidity
37486;BME280;23341;50.296;18.960;2023-04-22T00:03:34;49278.69;;;-144.43;64.58
37486;BME280;23341;50.296;18.960;2023-04-22T00:08:40;49250.69;;;-144.43;65.86
37486;BME280;23341;50.296;18.960;2023-04-22T00:13:44;49278.69;;;-144.43;66.84
37486;BME280;23341;50.296;18.960;2023-04-22T00:18:48;49278.69;;;-144.43;68.41
37486;BME280;23341;50.296;18.960;2023-04-22T00:23:54;49288.69;;;-144.43;67.87
37486;BME280;23341;50.296;18.960;2023-04-22T00:28:58;49274.69;;;-144.43;67.98
37486;BME280;23341;50.296;18.960;2023-04-22T00:34:02;49266.69;;;-144.43;68.11
37486;BME280;23341;50.296;18.960;2023-04-22T00:39:08;49286.69;;;-144.43;69.58
37486;BME280;23341;50.296;18.960;2023-04-22T00:44:13;49306.66;;;-144.43;69.73
37486;BME280;23341;50.296;18.960;2023-04-22T00:49:18;49286.69;;;-144.43;70.44
37486;BME280;23341;50.296;18.960;2023-04-22T00:54:24;49310.66;;;-144.43;70.91
37486;BME280;23341;50.296;18.960;2023-04-22T00:59:30;49312.66;;;-144.43;71.35
37486;BME280;23341;50.296;18.960;2023-04-22T01:04:35;49290.69;;;-144.43;69.91
37486;BME280;23341;50.296;18.960;2023-04-22T01:09:40;49290.69;;;-144.43;69.27
37486;BME280;23341;50.296;18.960;2023-04-22T01:14:45;49302.66;;;-144.43;70.87
37486;BME280;23341;50.296;18.960;2023-04-22T01:19:49;49310.66;;;-144.43;72.13
37486;BME280;23341;50.296;18.960;2023-04-22T01:24:55;49322.66;;;-144.43;71.36
37486;BME280;23341;50.296;18.960;2023-04-22T01:30:00;49290.69;;;-144.43;70.78
37486;BME280;23341;50.296;18.960;2023-04-22T01:35:07;49272.69;;;-144.43;71.17
37486;BME280;23341;50.296;18.960;2023-04-22T01:40:13;49310.66;;;-144.43;71.50
37486;BME280;23341;50.296;18.960;2023-04-22T01:45:21;49302.66;;;-144.43;71.39
37486;BME280;23341;50.296;18.960;2023-04-22T01:50:26;49300.66;;;-144.43;71.90
37486;BME280;23341;50.296;18.960;2023-04-22T01:55:31;49306.66;;;-144.43;72.25
37486;BME280;23341;50.296;18.960;2023-04-22T02:00:38;49338.63;;;-144.43;73.15
37486;BME280;23341;50.296;18.960;2023-04-22T02:05:43;49320.66;;;-144.43;73.60
37486;BME280;23341;50.296;18.960;2023-04-22T02:10:48;49310.66;;;-144.43;74.25
37486;BME280;23341;50.296;18.960;2023-04-22T02:15:53;49338.63;;;-144.43;74.22
37486;BME280;23341;50.296;18.960;2023-04-22T02:20:57;49332.66;;;-144.43;75.03
37486;BME280;23341;50.296;18.960;2023-04-22T02:26:03;49382.59;;;-144.43;75.43
37486;BME280;23341;50.296;18.960;2023-04-22T02:31:08;49346.63;;;-144.43;75.79
37486;BME280;23341;50.296;18.960;2023-04-22T02:36:15;49348.63;;;-144.43;75.99
37486;BME280;23341;50.296;18.960;2023-04-22T02:41:21;49342.63;;;-144.43;74.95
37486;BME280;23341;50.296;18.960;2023-04-22T02:46:26;49336.66;;;-144.43;75.28
37486;BME280;23341;50.296;18.960;2023-04-22T02:51:31;49356.63;;;-144.43;74.59
37486;BME280;23341;50.296;18.960;2023-04-22T02:56:37;49324.66;;;-144.43;74.23
37486;BME280;23341;50.296;18.960;2023-04-22T03:01:41;49366.63;;;-144.43;75.50
37486;BME280;23341;50.296;18.960;2023-04-22T03:06:55;49328.66;;;-144.43;75.49
37486;BME280;23341;50.296;18.960;2023-04-22T03:12:00;49314.66;;;-144.43;74.66
37486;BME280;23341;50.296;18.960;2023-04-22T03:17:05;49306.66;;;-144.43;75.09
37486;BME280;23341;50.296;18.960;2023-04-22T03:22:10;49338.63;;;-144.43;76.50
37486;BME280;23341;50.296;18.960;2023-04-22T03:27:16;49300.66;;;-144.43;76.37
37486;BME280;23341;50.296;18.960;2023-04-22T03:32:21;49334.66;;;-144.43;76.14
37486;BME280;23341;50.296;18.960;2023-04-22T03:37:36;49326.66;;;-144.43;77.22
37486;BME280;23341;50.296;18.960;2023-04-22T03:42:43;49340.63;;;-144.43;77.60
37486;BME280;23341;50.296;18.960;2023-04-22T03:47:48;49358.63;;;-144.43;78.55
37486;BME280;23341;50.296;18.960;2023-04-22T03:52:57;49374.63;;;-144.43;79.06
37486;BME280;23341;50.296;18.960;2023-04-22T03:58:04;49392.59;;;-144.43;79.55
37486;BME280;23341;50.296;18.960;2023-04-22T04:03:09;49386.59;;;-144.43;79.22
37486;BME280;23341;50.296;18.960;2023-04-22T04:08:14;49402.59;;;-144.43;79.68
37486;BME280;23341;50.296;18.960;2023-04-22T04:13:20;49374.63;;;-144.43;79.26
37486;BME280;23341;50.296;18.960;2023-04-22T04:18:45;49364.63;;;-144.43;77.80
37486;BME280;23341;50.296;18.960;2023-04-22T04:23:54;49384.59;;;-144.43;77.12
37486;BME280;23341;50.296;18.960;2023-04-22T04:29:04;49402.59;;;-144.43;76.88
37486;BME280;23341;50.296;18.960;2023-04-22T04:34:10;49400.59;;;-144.43;76.91
37486;BME280;23341;50.296;18.960;2023-04-22T04:39:15;49420.59;;;-144.43;76.48
37486;BME280;23341;50.296;18.960;2023-04-22T04:44:23;49428.59;;;-144.43;75.86
37486;BME280;23341;50.296;18.960;2023-04-22T04:49:30;49470.56;;;-144.43;74.28
37486;BME280;23341;50.296;18.960;2023-04-22T04:54:35;49498.53;;;-144.43;71.35
37486;BME280;23341;50.296;18.960;2023-04-22T04:59:41;49520.53;;;-144.43;67.81
37486;BME280;23341;50.296;18.960;2023-04-22T05:04:46;49572.50;;;-144.43;62.13
37486;BME280;23341;50.296;18.960;2023-04-22T05:09:51;49614.47;;;-144.43;58.02
37486;BME280;23341;50.296;18.960;2023-04-22T05:14:58;49738.38;;;-144.43;54.09
37486;BME280;23341;50.296;18.960;2023-04-22T05:20:03;49718.41;;;-144.43;49.98
37486;BME280;23341;50.296;18.960;2023-04-22T05:25:16;49736.38;;;-144.43;48.41
37486;BME280;23341;50.296;18.960;2023-04-22T05:30:31;49804.34;;;-144.43;47.99
37486;BME280;23341;50.296;18.960;2023-04-22T05:35:35;49786.34;;;-144.43;46.90
37486;BME280;23341;50.296;18.960;2023-04-22T05:40:39;49798.34;;;-144.43;45.42
37486;BME280;23341;50.296;18.960;2023-04-22T05:45:48;49838.31;;;-144.43;45.42
37486;BME280;23341;50.296;18.960;2023-04-22T05:50:53;50058.22;;;-144.43;41.84
37486;BME280;23341;50.296;18.960;2023-04-22T05:55:58;50408.06;;;-144.43;37.25
37486;BME280;23341;50.296;18.960;2023-04-22T06:01:04;50957.84;;;-144.43;32.70
37486;BME280;23341;50.296;18.960;2023-04-22T06:06:29;50797.91;;;-144.43;32.82
37486;BME280;23341;50.296;18.960;2023-04-22T06:11:34;51009.84;;;-144.43;32.29
37486;BME280;23341;50.296;18.960;2023-04-22T06:16:39;51341.78;;;-144.43;30.52
37486;BME280;23341;50.296;18.960;2023-04-22T06:21:44;51629.72;;;-144.43;29.31
37486;BME280;23341;50.296;18.960;2023-04-22T06:26:48;51589.72;;;-144.43;28.63
37486;BME280;23341;50.296;18.960;2023-04-22T06:31:55;51623.72;;;-144.43;28.41
37486;BME280;23341;50.296;18.960;2023-04-22T06:36:59;52039.69;;;-144.43;27.39
37486;BME280;23341;50.296;18.960;2023-04-22T06:42:04;52601.75;;;-144.43;26.09
37486;BME280;23341;50.296;18.960;2023-04-22T06:47:44;53025.81;;;-144.43;24.99
37486;BME280;23341;50.296;18.960;2023-04-22T06:52:52;53273.88;;;-144.43;24.07
37486;BME280;23341;50.296;18.960;2023-04-22T06:57:58;53109.84;;;-144.43;24.12
37486;BME280;23341;50.296;18.960;2023-04-22T07:03:09;52461.72;;;-144.43;24.71
37486;BME280;23341;50.296;18.960;2023-04-22T07:08:13;52835.78;;;-144.43;24.59
37486;BME280;23341;50.296;18.960;2023-04-22T07:13:17;52607.75;;;-144.43;24.70
37486;BME280;23341;50.296;18.960;2023-04-22T07:18:24;53133.84;;;-144.43;23.66
37486;BME280;23341;50.296;18.960;2023-04-22T07:23:28;53850.09;;;-144.43;22.87
37486;BME280;23341;50.296;18.960;2023-04-22T07:28:32;53141.84;;;-144.43;22.42
37486;BME280;23341;50.296;18.960;2023-04-22T07:33:38;53447.94;;;-144.43;22.20
37486;BME280;23341;50.296;18.960;2023-04-22T07:38:43;53405.94;;;-144.43;22.01
37486;BME280;23341;50.296;18.960;2023-04-22T07:43:47;52219.72;;;-144.43;23.14
37486;BME280;23341;50.296;18.960;2023-04-22T07:48:53;52179.69;;;-144.43;23.58
37486;BME280;23341;50.296;18.960;2023-04-22T07:53:58;53069.84;;;-144.43;22.31
37486;BME280;23341;50.296;18.960;2023-04-22T08:05:07;54088.22;;;-144.43;20.58
37486;BME280;23341;50.296;18.960;2023-04-22T08:10:11;54704.59;;;-144.43;20.25
37486;BME280;23341;50.296;18.960;2023-04-22T08:15:16;53944.16;;;-144.43;20.69
37486;BME280;23341;50.296;18.960;2023-04-22T08:26:42;52689.75;;;-144.43;21.58
37486;BME280;23341;50.296;18.960;2023-04-22T08:31:47;52239.72;;;-144.43;21.96
37486;BME280;23341;50.296;18.960;2023-04-22T08:42:54;51065.81;;;-144.43;23.30
37486;BME280;23341;50.296;18.960;2023-04-22T08:47:59;51087.81;;;-144.43;24.85
37486;BME280;23341;50.296;18.960;2023-04-22T09:00:20;51007.84;;;-144.43;24.55
37486;BME280;23341;50.296;18.960;2023-04-22T09:05:25;51021.84;;;-144.43;23.86
37486;BME280;23341;50.296;18.960;2023-04-22T09:16:50;50719.94;;;-144.43;25.77
37486;BME280;23341;50.296;18.960;2023-04-22T09:21:56;50899.88;;;-144.43;25.61
37486;BME280;23341;50.296;18.960;2023-04-22T09:38:37;51029.84;;;-144.43;26.85
37486;BME280;23341;50.296;18.960;2023-04-22T09:43:41;50773.91;;;-144.43;25.37
37486;BME280;23341;50.296;18.960;2023-04-22T09:55:20;50775.91;;;-144.43;25.46
37486;BME280;23341;50.296;18.960;2023-04-22T10:00:28;50873.88;;;-144.43;25.21
37486;BME280;23341;50.296;18.960;2023-04-22T10:05:33;50849.88;;;-144.43;25.81
37486;BME280;23341;50.296;18.960;2023-04-22T10:10:40;50713.94;;;-144.43;25.97
37486;BME280;23341;50.296;18.960;2023-04-22T10:15:49;50597.97;;;-144.43;26.44
37486;BME280;23341;50.296;18.960;2023-04-22T10:27:04;50470.03;;;-144.43;26.93
37486;BME280;23341;50.296;18.960;2023-04-22T10:32:24;50434.03;;;-144.43;26.93
37486;BME280;23341;50.296;18.960;2023-04-22T10:43:41;50713.94;;;-144.43;26.48
37486;BME280;23341;50.296;18.960;2023-04-22T10:48:46;50653.94;;;-144.43;26.87
37486;BME280;23341;50.296;18.960;2023-04-22T10:59:33;50554.00;;;-144.43;26.86
37486;BME280;23341;50.296;18.960;2023-04-22T11:04:37;50745.91;;;-144.43;27.30
37486;BME280;23341;50.296;18.960;2023-04-22T11:09:45;50615.97;;;-144.43;26.96
37486;BME280;23341;50.296;18.960;2023-04-22T11:14:53;50909.88;;;-144.43;27.12
37486;BME280;23341;50.296;18.960;2023-04-22T11:26:32;50589.97;;;-144.43;27.20
37486;BME280;23341;50.296;18.960;2023-04-22T11:31:45;50478.03;;;-144.43;26.92
37486;BME280;23341;50.296;18.960;2023-04-22T11:44:24;50593.97;;;-144.43;25.66
37486;BME280;23341;50.296;18.960;2023-04-22T11:50:19;50671.94;;;-144.43;25.26
37486;BME280;23341;50.296;18.960;2023-04-22T11:55:25;50897.88;;;-144.43;24.66
37486;BME280;23341;50.296;18.960;2023-04-22T12:00:34;50857.88;;;-144.43;24.99
37486;BME280;23341;50.296;18.960;2023-04-22T12:05:42;50839.88;;;-144.43;25.40
37486;BME280;23341;50.296;18.960;2023-04-22T12:10:49;51051.84;;;-144.43;24.37
37486;BME280;23341;50.296;18.960;2023-04-22T12:15:55;50865.88;;;-144.43;24.54
37486;BME280;23341;50.296;18.960;2023-04-22T12:21:07;50665.94;;;-144.43;25.48
37486;BME280;23341;50.296;18.960;2023-04-22T12:26:12;50677.94;;;-144.43;25.59
37486;BME280;23341;50.296;18.960;2023-04-22T12:31:16;50907.88;;;-144.43;24.61
37486;BME280;23341;50.296;18.960;2023-04-22T12:36:22;50793.91;;;-144.43;24.33
37486;BME280;23341;50.296;18.960;2023-04-22T12:41:27;51097.81;;;-144.43;24.49
37486;BME280;23341;50.296;18.960;2023-04-22T12:46:32;50753.91;;;-144.43;24.90
37486;BME280;23341;50.296;18.960;2023-04-22T12:51:38;50731.94;;;-144.43;25.30
37486;BME280;23341;50.296;18.960;2023-04-22T12:56:44;50641.97;;;-144.43;25.11
37486;BME280;23341;50.296;18.960;2023-04-22T13:01:48;50997.84;;;-144.43;25.48
37486;BME280;23341;50.296;18.960;2023-04-22T13:06:54;51037.84;;;-144.43;23.83
37486;BME280;23341;50.296;18.960;2023-04-22T13:11:58;51057.84;;;-144.43;23.97
37486;BME280;23341;50.296;18.960;2023-04-22T13:17:05;51429.75;;;-144.43;24.38
37486;BME280;23341;50.296;18.960;2023-04-22T13:22:11;51657.72;;;-144.43;23.11
37486;BME280;23341;50.296;18.960;2023-04-22T13:27:15;51873.72;;;-144.43;22.34
37486;BME280;23341;50.296;18.960;2023-04-22T13:32:20;51865.72;;;-144.43;21.78
37486;BME280;23341;50.296;18.960;2023-04-22T13:37:26;51747.72;;;-144.43;21.55
37486;BME280;23341;50.296;18.960;2023-04-22T13:42:30;51901.72;;;-144.43;21.66
37486;BME280;23341;50.296;18.960;2023-04-22T13:47:34;52111.69;;;-144.43;20.77
37486;BME280;23341;50.296;18.960;2023-04-22T13:52:40;52133.69;;;-144.43;20.44
37486;BME280;23341;50.296;18.960;2023-04-22T13:57:45;52889.78;;;-144.43;19.76
37486;BME280;23341;50.296;18.960;2023-04-22T14:02:49;52885.78;;;-144.43;19.94
37486;BME280;23341;50.296;18.960;2023-04-22T14:07:56;52767.75;;;-144.43;19.83
37486;BME280;23341;50.296;18.960;2023-04-22T14:13:01;52521.72;;;-144.43;20.06
37486;BME280;23341;50.296;18.960;2023-04-22T14:18:05;53099.84;;;-144.43;20.09
37486;BME280;23341;50.296;18.960;2023-04-22T14:23:11;52775.75;;;-144.43;19.74
37486;BME280;23341;50.296;18.960;2023-04-22T14:28:16;51757.72;;;-144.43;20.33
37486;BME280;23341;50.296;18.960;2023-04-22T14:33:20;51645.72;;;-144.43;20.55
37486;BME280;23341;50.296;18.960;2023-04-22T14:38:28;51761.72;;;-144.43;20.08
37486;BME280;23341;50.296;18.960;2023-04-22T14:43:32;51967.69;;;-144.43;19.91
37486;BME280;23341;50.296;18.960;2023-04-22T14:48:36;52485.72;;;-144.43;19.44
37486;BME280;23341;50.296;18.960;2023-04-22T14:53:43;52385.72;;;-144.43;19.70
37486;BME280;23341;50.296;18.960;2023-04-22T14:58:47;52395.72;;;-144.43;19.66
37486;BME280;23341;50.296;18.960;2023-04-22T15:03:52;52493.72;;;-144.43;20.30
37486;BME280;23341;50.296;18.960;2023-04-22T15:08:58;51929.72;;;-144.43;19.78
37486;BME280;23341;50.296;18.960;2023-04-22T15:14:02;51493.75;;;-144.43;20.95
37486;BME280;23341;50.296;18.960;2023-04-22T15:19:07;51213.78;;;-144.43;21.16
37486;BME280;23341;50.296;18.960;2023-04-22T15:24:13;50879.88;;;-144.43;21.78
37486;BME280;23341;50.296;18.960;2023-04-22T15:29:17;50993.84;;;-144.43;22.13
37486;BME280;23341;50.296;18.960;2023-04-22T15:34:22;50829.91;;;-144.43;21.35
37486;BME280;23341;50.296;18.960;2023-04-22T15:39:28;50777.91;;;-144.43;21.64
37486;BME280;23341;50.296;18.960;2023-04-22T15:44:33;50562.00;;;-144.43;22.72
37486;BME280;23341;50.296;18.960;2023-04-22T15:49:37;50316.09;;;-144.43;23.30
37486;BME280;23341;50.296;18.960;2023-04-22T15:54:44;50324.09;;;-144.43;23.90
37486;BME280;23341;50.296;18.960;2023-04-22T15:59:48;50260.13;;;-144.43;24.03
37486;BME280;23341;50.296;18.960;2023-04-22T16:05:15;50150.16;;;-144.43;23.75
37486;BME280;23341;50.296;18.960;2023-04-22T16:10:20;50174.16;;;-144.43;24.00
37486;BME280;23341;50.296;18.960;2023-04-22T16:15:28;50220.13;;;-144.43;24.93
37486;BME280;23341;50.296;18.960;2023-04-22T16:20:32;50192.16;;;-144.43;24.48
37486;BME280;23341;50.296;18.960;2023-04-22T16:25:38;50142.16;;;-144.43;24.46
37486;BME280;23341;50.296;18.960;2023-04-22T16:30:43;50128.19;;;-144.43;24.68
37486;BME280;23341;50.296;18.960;2023-04-22T16:35:47;50154.16;;;-144.43;24.74
37486;BME280;23341;50.296;18.960;2023-04-22T16:40:53;50100.19;;;-144.43;24.71
37486;BME280;23341;50.296;18.960;2023-04-22T16:45:58;50086.19;;;-144.43;26.41
37486;BME280;23341;50.296;18.960;2023-04-22T16:51:03;50046.22;;;-144.43;27.24
37486;BME280;23341;50.296;18.960;2023-04-22T16:56:09;50054.22;;;-144.43;27.05
37486;BME280;23341;50.296;18.960;2023-04-22T17:01:14;50034.22;;;-144.43;27.15
37486;BME280;23341;50.296;18.960;2023-04-22T17:06:18;50048.22;;;-144.43;27.75
37486;BME280;23341;50.296;18.960;2023-04-22T17:11:24;50008.25;;;-144.43;27.95
37486;BME280;23341;50.296;18.960;2023-04-22T17:16:29;49952.25;;;-144.43;28.53
37486;BME280;23341;50.296;18.960;2023-04-22T17:21:34;49972.25;;;-144.43;28.38
37486;BME280;23341;50.296;18.960;2023-04-22T17:26:40;49962.25;;;-144.43;28.69
37486;BME280;23341;50.296;18.960;2023-04-22T17:31:44;49894.28;;;-144.43;29.13
37486;BME280;23341;50.296;18.960;2023-04-22T17:36:48;49872.31;;;-144.43;28.90
37486;BME280;23341;50.296;18.960;2023-04-22T17:41:54;49896.28;;;-144.43;29.26
37486;BME280;23341;50.296;18.960;2023-04-22T17:47:00;49894.28;;;-144.43;29.83
37486;BME280;23341;50.296;18.960;2023-04-22T17:52:06;49890.31;;;-144.43;30.71
37486;BME280;23341;50.296;18.960;2023-04-22T17:57:12;49894.28;;;-144.43;31.66
37486;BME280;23341;50.296;18.960;2023-04-22T18:02:16;49834.34;;;-144.43;32.21
37486;BME280;23341;50.296;18.960;2023-04-22T18:07:22;49806.34;;;-144.43;32.98
37486;BME280;23341;50.296;18.960;2023-04-22T18:12:27;49788.34;;;-144.43;34.43
37486;BME280;23341;50.296;18.960;2023-04-22T18:17:32;49752.38;;;-144.43;32.64
37486;BME280;23341;50.296;18.960;2023-04-22T18:22:37;49736.38;;;-144.43;32.89
37486;BME280;23341;50.296;18.960;2023-04-22T18:27:43;49696.41;;;-144.43;33.42
37486;BME280;23341;50.296;18.960;2023-04-22T18:32:47;49692.41;;;-144.43;34.19
37486;BME280;23341;50.296;18.960;2023-04-22T18:37:51;49664.44;;;-144.43;34.56
37486;BME280;23341;50.296;18.960;2023-04-22T18:42:57;49666.44;;;-144.43;35.36
37486;BME280;23341;50.296;18.960;2023-04-22T18:48:01;49650.44;;;-144.43;35.42
37486;BME280;23341;50.296;18.960;2023-04-22T18:53:05;49622.47;;;-144.43;35.50
37486;BME280;23341;50.296;18.960;2023-04-22T18:58:11;49610.47;;;-144.43;35.83
37486;BME280;23341;50.296;18.960;2023-04-22T19:03:16;49610.47;;;-144.43;35.98
37486;BME280;23341;50.296;18.960;2023-04-22T19:08:21;49632.44;;;-144.43;36.67
37486;BME280;23341;50.296;18.960;2023-04-22T19:13:26;49594.47;;;-144.43;37.14
37486;BME280;23341;50.296;18.960;2023-04-22T19:18:32;49564.50;;;-144.43;37.23
37486;BME280;23341;50.296;18.960;2023-04-22T19:23:36;49570.50;;;-144.43;37.55
37486;BME280;23341;50.296;18.960;2023-04-22T19:28:43;49564.50;;;-144.43;37.77
37486;BME280;23341;50.296;18.960;2023-04-22T19:33:50;49550.50;;;-144.43;38.44
37486;BME280;23341;50.296;18.960;2023-04-22T19:38:54;49560.50;;;-144.43;38.29
37486;BME280;23341;50.296;18.960;2023-04-22T19:44:00;49544.50;;;-144.43;38.16
37486;BME280;23341;50.296;18.960;2023-04-22T19:49:05;49530.50;;;-144.43;39.50
37486;BME280;23341;50.296;18.960;2023-04-22T19:54:10;49558.50;;;-144.43;40.73
37486;BME280;23341;50.296;18.960;2023-04-22T19:59:17;49488.53;;;-144.43;39.21
37486;BME280;23341;50.296;18.960;2023-04-22T20:04:22;49526.50;;;-144.43;40.21
37486;BME280;23341;50.296;18.960;2023-04-22T20:09:29;49474.56;;;-144.43;40.07
37486;BME280;23341;50.296;18.960;2023-04-22T20:14:36;49506.53;;;-144.43;40.01
37486;BME280;23341;50.296;18.960;2023-04-22T20:19:41;49446.56;;;-144.43;40.43
37486;BME280;23341;50.296;18.960;2023-04-22T20:24:46;49468.56;;;-144.43;41.12
37486;BME280;23341;50.296;18.960;2023-04-22T20:29:57;49456.56;;;-144.43;41.35
37486;BME280;23341;50.296;18.960;2023-04-22T20:35:02;49456.56;;;-144.43;40.78
37486;BME280;23341;50.296;18.960;2023-04-22T20:40:08;49428.59;;;-144.43;41.15
37486;BME280;23341;50.296;18.960;2023-04-22T20:45:18;49410.59;;;-144.43;42.49
37486;BME280;23341;50.296;18.960;2023-04-22T20:50:23;49408.59;;;-144.43;42.41
37486;BME280;23341;50.296;18.960;2023-04-22T20:55:27;49446.56;;;-144.43;44.07
37486;BME280;23341;50.296;18.960;2023-04-22T21:00:33;49432.56;;;-144.43;42.29
37486;BME280;23341;50.296;18.960;2023-04-22T21:05:37;49414.59;;;-144.43;44.59
37486;BME280;23341;50.296;18.960;2023-04-22T21:10:47;49384.59;;;-144.43;43.15
37486;BME280;23341;50.296;18.960;2023-04-22T21:15:57;49396.59;;;-144.43;44.46
37486;BME280;23341;50.296;18.960;2023-04-22T21:21:03;49368.63;;;-144.43;44.34
37486;BME280;23341;50.296;18.960;2023-04-22T21:26:08;49386.59;;;-144.43;44.04
37486;BME280;23341;50.296;18.960;2023-04-22T21:31:15;49388.59;;;-144.43;44.32
37486;BME280;23341;50.296;18.960;2023-04-22T21:36:19;49384.59;;;-144.43;46.04
37486;BME280;23341;50.296;18.960;2023-04-22T21:41:25;49350.63;;;-144.43;45.38
37486;BME280;23341;50.296;18.960;2023-04-22T21:46:31;49338.63;;;-144.43;44.83
37486;BME280;23341;50.296;18.960;2023-04-22T21:51:35;49354.63;;;-144.43;45.58
37486;BME280;23341;50.296;18.960;2023-04-22T21:56:40;49372.63;;;-144.43;47.25
37486;BME280;23341;50.296;18.960;2023-04-22T22:01:45;49374.63;;;-144.43;47.76
37486;BME280;23341;50.296;18.960;2023-04-22T22:06:50;49350.63;;;-144.43;47.87
37486;BME280;23341;50.296;18.960;2023-04-22T22:11:55;49330.66;;;-144.43;48.11
37486;BME280;23341;50.296;18.960;2023-04-22T22:17:00;49350.63;;;-144.43;48.85
37486;BME280;23341;50.296;18.960;2023-04-22T22:22:05;49326.66;;;-144.43;50.34
37486;BME280;23341;50.296;18.960;2023-04-22T22:27:09;49322.66;;;-144.43;49.44
37486;BME280;23341;50.296;18.960;2023-04-22T22:32:15;49282.69;;;-144.43;49.70
37486;BME280;23341;50.296;18.960;2023-04-22T22:37:19;49318.66;;;-144.43;51.25
37486;BME280;23341;50.296;18.960;2023-04-22T22:42:23;49330.66;;;-144.43;51.94
37486;BME280;23341;50.296;18.960;2023-04-22T22:47:29;49270.69;;;-144.43;52.35
37486;BME280;23341;50.296;18.960;2023-04-22T22:52:33;49288.69;;;-144.43;55.02
37486;BME280;23341;50.296;18.960;2023-04-22T22:57:38;49280.69;;;-144.43;55.02
37486;BME280;23341;50.296;18.960;2023-04-22T23:02:43;49276.69;;;-144.43;54.92
37486;BME280;23341;50.296;18.960;2023-04-22T23:07:48;49274.69;;;-144.43;54.51
37486;BME280;23341;50.296;18.960;2023-04-22T23:12:53;49276.69;;;-144.43;56.30
37486;BME280;23341;50.296;18.960;2023-04-22T23:17:59;49294.66;;;-144.43;55.58
37486;BME280;23341;50.296;18.960;2023-04-22T23:23:03;49290.69;;;-144.43;56.95
37486;BME280;23341;50.296;18.960;2023-04-22T23:28:08;49280.69;;;-144.43;56.88
37486;BME280;23341;50.296;18.960;2023-04-22T23:33:14;49258.69;;;-144.43;57.68
37486;BME280;23341;50.296;18.960;2023-04-22T23:38:19;49230.72;;;-144.43;52.98
37486;BME280;23341;50.296;18.960;2023-04-22T23:43:23;49230.72;;;-144.43;53.09
37486;BME280;23341;50.296;18.960;2023-04-22T23:48:29;49206.72;;;-144.43;53.52
37486;BME280;23341;50.296;18.960;2023-04-22T23:53:34;49218.72;;;-144.43;53.06
37486;BME280;23341;50.296;18.960;2023-04-22T23:58:39;49246.72;;;-144.43;53.48
